Portada
METAR-TAF:

METAR-TAF

Aeroports :

Wattisham, Anglaterra

latitud: 52-07N, longitud: 000-58E, altitud: 87 m

Observació

L'informe es va fer fa 1 hora i 18 minuts, a les 14:50 UTC
Vent 11 kt del Sud-Oest
Temperatura 9°C
Humitat 81%
Pressió 1011 hPa
Visibilitat 10 km o més

METAR: EGUW 071450Z AUTO 22011KT 9999 FEW027/// 09/06 Q1011

Hora: 16:08 (16:08 UTC)

Pronòstic

L'informe es va fer fa 29 hores i 29 minuts, a les 10:39 UTC
Pronòstic vàlid del 06 a les 12 UTC al 06 a les 19 UTC
Vent 18 kt del Sud-Oest amb ràfegues de 28 kt
Visibilitat 10 km o més
Escasses núvols a una alçada de 1800 ft
Temporalment
l' 06 a les 12 UTC al 06 a les 19 UTC
Núvols disperses a una alçada de 1800 ft
Probabilitat 30% :
Temporalment
l' 06 a les 16 UTC al 06 a les 19 UTC
Visibilitat: 4000 m
Núvols disperses a una alçada de 1400 ft, Cumulus congestus.
xàfecs de pluja

TAF: EGUW 061039Z 0612/0619 23018G28KT 9999 FEW018 TEMPO 0612/0619 SCT018 PROB30 TEMPO 0616/0619 4000 SHRA SCT014TCU

Observacions i pronòstics meteorològics de més de 4000 aeroports (METAR i TAF).

Les estacions disponibles són els punts grocs i vermells al mapa.

Posi el ratolí al punt desitjat per veure el nom de l'estació.

Feu clic per veure les observacions i els pronòstics meteorològics.

Per canviar el mapa: feu clic els botons verds amb una creu de color negre per apropar; al botó verd amb un guió per allunyar la imatge; o en les fletxes verdes per a mapes adjacents.


METAR-TAF: